sensor_id;sensor_type;location;lat;lon;timestamp;temperature;humidity
14154;DHT22;7157;53.144;7.570;2023-05-14T00:01:54;13.08;85.25
14154;DHT22;7157;53.144;7.570;2023-05-14T00:11:58;12.97;85.42
14154;DHT22;7157;53.144;7.570;2023-05-14T00:22:01;12.71;86.47
14154;DHT22;7157;53.144;7.570;2023-05-14T00:32:07;12.73;85.33
14154;DHT22;7157;53.144;7.570;2023-05-14T00:42:09;12.62;85.26
14154;DHT22;7157;53.144;7.570;2023-05-14T00:52:14;12.47;85.33
14154;DHT22;7157;53.144;7.570;2023-05-14T01:02:17;12.41;86.09
14154;DHT22;7157;53.144;7.570;2023-05-14T01:12:27;12.34;86.70
14154;DHT22;7157;53.144;7.570;2023-05-14T01:22:32;12.15;88.00
14154;DHT22;7157;53.144;7.570;2023-05-14T01:32:36;12.10;87.67
14154;DHT22;7157;53.144;7.570;2023-05-14T01:42:42;11.99;87.93
14154;DHT22;7157;53.144;7.570;2023-05-14T01:52:46;11.90;88.25
14154;DHT22;7157;53.144;7.570;2023-05-14T02:02:51;11.85;88.17
14154;DHT22;7157;53.144;7.570;2023-05-14T02:12:54;11.87;88.40
14154;DHT22;7157;53.144;7.570;2023-05-14T02:22:58;11.85;88.15
14154;DHT22;7157;53.144;7.570;2023-05-14T02:33:01;11.71;88.62
14154;DHT22;7157;53.144;7.570;2023-05-14T02:43:06;11.55;89.12
14154;DHT22;7157;53.144;7.570;2023-05-14T02:53:09;11.36;89.48
14154;DHT22;7157;53.144;7.570;2023-05-14T03:03:13;11.38;89.22
14154;DHT22;7157;53.144;7.570;2023-05-14T03:13:16;11.33;89.39
14154;DHT22;7157;53.144;7.570;2023-05-14T03:23:22;11.31;89.38
14154;DHT22;7157;53.144;7.570;2023-05-14T03:33:25;11.25;89.96
14154;DHT22;7157;53.144;7.570;2023-05-14T03:43:29;11.20;89.90
14154;DHT22;7157;53.144;7.570;2023-05-14T03:53:32;11.23;89.83
14154;DHT22;7157;53.144;7.570;2023-05-14T04:03:36;11.33;89.99
14154;DHT22;7157;53.144;7.570;2023-05-14T04:13:40;11.27;89.85
14154;DHT22;7157;53.144;7.570;2023-05-14T04:23:44;11.33;89.80
14154;DHT22;7157;53.144;7.570;2023-05-14T04:33:46;11.29;91.01
14154;DHT22;7157;53.144;7.570;2023-05-14T04:43:54;11.58;90.52
14154;DHT22;7157;53.144;7.570;2023-05-14T04:53:57;11.58;91.10
14154;DHT22;7157;53.144;7.570;2023-05-14T05:04:01;11.89;90.84
14154;DHT22;7157;53.144;7.570;2023-05-14T05:14:04;12.13;90.44
14154;DHT22;7157;53.144;7.570;2023-05-14T05:24:08;12.34;89.94
14154;DHT22;7157;53.144;7.570;2023-05-14T05:34:11;12.57;91.02
14154;DHT22;7157;53.144;7.570;2023-05-14T05:44:16;13.18;90.50
14154;DHT22;7157;53.144;7.570;2023-05-14T05:54:19;13.80;88.96
14154;DHT22;7157;53.144;7.570;2023-05-14T06:04:23;14.40;87.48
14154;DHT22;7157;53.144;7.570;2023-05-14T06:14:26;14.84;85.74
14154;DHT22;7157;53.144;7.570;2023-05-14T06:24:30;15.54;82.84
14154;DHT22;7157;53.144;7.570;2023-05-14T06:34:33;16.26;80.03
14154;DHT22;7157;53.144;7.570;2023-05-14T06:44:37;16.98;75.92
14154;DHT22;7157;53.144;7.570;2023-05-14T06:54:40;17.36;71.21
14154;DHT22;7157;53.144;7.570;2023-05-14T07:04:44;17.96;66.58
14154;DHT22;7157;53.144;7.570;2023-05-14T07:14:47;18.92;65.17
14154;DHT22;7157;53.144;7.570;2023-05-14T07:24:51;19.16;55.01
14154;DHT22;7157;53.144;7.570;2023-05-14T07:34:54;19.77;56.81
14154;DHT22;7157;53.144;7.570;2023-05-14T07:44:58;20.20;53.00
14154;DHT22;7157;53.144;7.570;2023-05-14T07:55:02;20.41;52.97
14154;DHT22;7157;53.144;7.570;2023-05-14T08:05:07;20.37;53.77
14154;DHT22;7157;53.144;7.570;2023-05-14T08:15:11;20.55;54.43
14154;DHT22;7157;53.144;7.570;2023-05-14T08:25:15;21.08;52.62
14154;DHT22;7157;53.144;7.570;2023-05-14T08:35:18;21.48;49.50
14154;DHT22;7157;53.144;7.570;2023-05-14T08:45:26;21.16;50.24
14154;DHT22;7157;53.144;7.570;2023-05-14T08:55:30;21.58;51.35
14154;DHT22;7157;53.144;7.570;2023-05-14T09:05:35;22.12;48.78
14154;DHT22;7157;53.144;7.570;2023-05-14T09:15:38;22.28;48.67
14154;DHT22;7157;53.144;7.570;2023-05-14T09:25:43;22.57;47.99
14154;DHT22;7157;53.144;7.570;2023-05-14T09:35:46;22.37;48.40
14154;DHT22;7157;53.144;7.570;2023-05-14T09:45:50;22.83;45.96
14154;DHT22;7157;53.144;7.570;2023-05-14T09:55:53;23.15;46.76
14154;DHT22;7157;53.144;7.570;2023-05-14T10:06:02;23.40;46.41
14154;DHT22;7157;53.144;7.570;2023-05-14T10:16:10;24.18;44.08
14154;DHT22;7157;53.144;7.570;2023-05-14T10:26:16;24.25;41.33
14154;DHT22;7157;53.144;7.570;2023-05-14T10:36:19;24.39;40.54
14154;DHT22;7157;53.144;7.570;2023-05-14T10:46:24;25.22;39.36
14154;DHT22;7157;53.144;7.570;2023-05-14T10:56:27;25.20;38.33
14154;DHT22;7157;53.144;7.570;2023-05-14T11:06:32;25.27;39.47
14154;DHT22;7157;53.144;7.570;2023-05-14T11:16:35;25.84;37.50
14154;DHT22;7157;53.144;7.570;2023-05-14T11:26:39;27.54;37.14
14154;DHT22;7157;53.144;7.570;2023-05-14T11:36:42;31.98;25.68
14154;DHT22;7157;53.144;7.570;2023-05-14T11:46:54;33.92;23.37
14154;DHT22;7157;53.144;7.570;2023-05-14T11:57:00;32.83;25.23
14154;DHT22;7157;53.144;7.570;2023-05-14T12:07:07;34.00;23.05
14154;DHT22;7157;53.144;7.570;2023-05-14T12:17:12;31.72;24.01
14154;DHT22;7157;53.144;7.570;2023-05-14T12:27:20;32.43;24.57
14154;DHT22;7157;53.144;7.570;2023-05-14T12:37:23;32.22;24.57
14154;DHT22;7157;53.144;7.570;2023-05-14T12:47:28;32.75;24.06
14154;DHT22;7157;53.144;7.570;2023-05-14T12:57:31;31.66;24.53
14154;DHT22;7157;53.144;7.570;2023-05-14T13:07:37;28.08;28.69
14154;DHT22;7157;53.144;7.570;2023-05-14T13:17:39;27.13;28.65
14154;DHT22;7157;53.144;7.570;2023-05-14T13:27:44;30.94;24.71
14154;DHT22;7157;53.144;7.570;2023-05-14T13:37:46;31.14;23.37
14154;DHT22;7157;53.144;7.570;2023-05-14T13:47:50;30.15;24.48
14154;DHT22;7157;53.144;7.570;2023-05-14T13:57:53;29.19;26.90
14154;DHT22;7157;53.144;7.570;2023-05-14T14:07:57;28.95;25.29
14154;DHT22;7157;53.144;7.570;2023-05-14T14:18:13;28.41;27.10
14154;DHT22;7157;53.144;7.570;2023-05-14T14:28:17;28.72;27.48
14154;DHT22;7157;53.144;7.570;2023-05-14T14:38:20;28.58;27.75
14154;DHT22;7157;53.144;7.570;2023-05-14T14:48:26;28.13;28.33
14154;DHT22;7157;53.144;7.570;2023-05-14T14:58:29;27.27;29.79
14154;DHT22;7157;53.144;7.570;2023-05-14T15:08:33;26.68;29.26
14154;DHT22;7157;53.144;7.570;2023-05-14T15:18:36;26.43;30.08
14154;DHT22;7157;53.144;7.570;2023-05-14T15:28:40;26.43;30.21
14154;DHT22;7157;53.144;7.570;2023-05-14T15:38:43;26.43;29.71
14154;DHT22;7157;53.144;7.570;2023-05-14T15:48:47;26.32;30.00
14154;DHT22;7157;53.144;7.570;2023-05-14T15:58:50;25.98;30.30
14154;DHT22;7157;53.144;7.570;2023-05-14T16:08:54;25.74;31.97
14154;DHT22;7157;53.144;7.570;2023-05-14T16:18:57;25.40;32.92
14154;DHT22;7157;53.144;7.570;2023-05-14T16:29:01;25.12;32.67
14154;DHT22;7157;53.144;7.570;2023-05-14T16:39:04;24.97;32.96
14154;DHT22;7157;53.144;7.570;2023-05-14T16:49:10;24.90;34.49
14154;DHT22;7157;53.144;7.570;2023-05-14T16:59:13;24.71;34.85
14154;DHT22;7157;53.144;7.570;2023-05-14T17:09:17;24.29;37.03
14154;DHT22;7157;53.144;7.570;2023-05-14T17:19:20;24.01;39.10
14154;DHT22;7157;53.144;7.570;2023-05-14T17:29:24;23.68;40.59
14154;DHT22;7157;53.144;7.570;2023-05-14T17:39:27;23.36;41.97
14154;DHT22;7157;53.144;7.570;2023-05-14T17:49:31;22.99;42.19
14154;DHT22;7157;53.144;7.570;2023-05-14T17:59:33;22.83;43.84
14154;DHT22;7157;53.144;7.570;2023-05-14T18:09:38;22.53;44.87
14154;DHT22;7157;53.144;7.570;2023-05-14T18:19:41;22.19;45.64
14154;DHT22;7157;53.144;7.570;2023-05-14T18:29:45;21.74;48.49
14154;DHT22;7157;53.144;7.570;2023-05-14T18:39:48;21.54;49.72
14154;DHT22;7157;53.144;7.570;2023-05-14T18:49:51;21.30;51.53
14154;DHT22;7157;53.144;7.570;2023-05-14T18:59:56;20.71;53.88
14154;DHT22;7157;53.144;7.570;2023-05-14T19:10:00;20.21;56.00
14154;DHT22;7157;53.144;7.570;2023-05-14T19:20:03;19.99;55.97
14154;DHT22;7157;53.144;7.570;2023-05-14T19:30:08;19.88;56.12
14154;DHT22;7157;53.144;7.570;2023-05-14T19:50:17;19.22;59.78
14154;DHT22;7157;53.144;7.570;2023-05-14T20:00:20;18.89;61.56
14154;DHT22;7157;53.144;7.570;2023-05-14T20:10:25;18.63;64.56
14154;DHT22;7157;53.144;7.570;2023-05-14T20:20:29;18.15;66.36
14154;DHT22;7157;53.144;7.570;2023-05-14T20:30:35;18.09;66.62
14154;DHT22;7157;53.144;7.570;2023-05-14T20:40:38;17.77;70.99
14154;DHT22;7157;53.144;7.570;2023-05-14T20:50:43;17.62;72.53
14154;DHT22;7157;53.144;7.570;2023-05-14T21:00:45;17.19;77.56
14154;DHT22;7157;53.144;7.570;2023-05-14T21:10:49;17.02;79.34
14154;DHT22;7157;53.144;7.570;2023-05-14T21:20:52;16.85;79.77
14154;DHT22;7157;53.144;7.570;2023-05-14T21:30:56;16.72;79.84
14154;DHT22;7157;53.144;7.570;2023-05-14T21:40:58;16.46;80.98
14154;DHT22;7157;53.144;7.570;2023-05-14T21:51:03;16.20;82.55
14154;DHT22;7157;53.144;7.570;2023-05-14T22:01:05;16.04;82.67
14154;DHT22;7157;53.144;7.570;2023-05-14T22:11:10;15.84;83.91
14154;DHT22;7157;53.144;7.570;2023-05-14T22:21:13;15.69;83.54
14154;DHT22;7157;53.144;7.570;2023-05-14T22:31:17;15.36;84.50
14154;DHT22;7157;53.144;7.570;2023-05-14T22:41:20;15.25;84.97
14154;DHT22;7157;53.144;7.570;2023-05-14T22:51:24;15.04;84.86
14154;DHT22;7157;53.144;7.570;2023-05-14T23:01:26;14.97;84.85
14154;DHT22;7157;53.144;7.570;2023-05-14T23:11:30;14.83;84.82
14154;DHT22;7157;53.144;7.570;2023-05-14T23:21:33;14.71;85.34
14154;DHT22;7157;53.144;7.570;2023-05-14T23:31:37;14.73;85.54
14154;DHT22;7157;53.144;7.570;2023-05-14T23:41:41;14.63;85.53
14154;DHT22;7157;53.144;7.570;2023-05-14T23:51:45;14.55;85.72
